Time;durP1;ratioP1;P1;durP2;ratioP2;P2;SDS_P1;SDS_P2;PMS_P1;PMS_P2;Temp;Humidity;BMP_temperature;BMP_pressure;BME280_temperature;BME280_humidity;BME280_pressure;Samples;Min_cycle;Max_cycle;Signal;HPM_P1;HPM_P2
2022/09/30 03:09:04;;;;;;;24.75;11.45;;;21.30;99.90;;;;;;6242918;22;20027;-93
2022/09/30 05:50:02;;;;;;;16.15;4.50;;;26.00;99.90;;;;;;6238749;22;20079;31
2022/09/30 05:52:29;;;;;;;14.60;4.70;;;26.20;99.90;;;;;;6200214;22;19920;-90
2022/09/30 05:54:57;;;;;;;12.73;5.68;;;26.50;99.90;;;;;;6185348;23;20009;-90
2022/09/30 05:57:24;;;;;;;13.98;6.47;;;26.70;99.90;;;;;;6185230;23;20035;-89
2022/09/30 05:59:51;;;;;;;13.13;6.30;;;27.00;99.90;;;;;;6185342;23;20009;-90
2022/09/30 06:02:21;;;;;;;10.98;6.28;;;27.10;99.90;;;;;;6185537;23;20005;-89
2022/09/30 06:04:49;;;;;;;16.25;5.55;;;27.20;99.90;;;;;;6185871;23;20012;-90
2022/09/30 06:07:36;;;;;;;17.10;6.25;;;27.40;99.90;;;;;;6184581;23;20013;-91
2022/09/30 06:10:11;;;;;;;13.65;5.38;;;27.50;99.90;;;;;;6185412;23;20040;-89
2022/09/30 06:12:50;;;;;;;12.98;5.93;;;28.00;99.90;;;;;;6185430;23;20064;-90
2022/09/30 06:15:17;;;;;;;16.25;5.80;;;28.30;99.90;;;;;;6186265;23;20009;-90
2022/09/30 06:17:45;;;;;;;12.15;6.00;;;28.70;99.90;;;;;;6185595;23;20068;-90
2022/09/30 06:20:12;;;;;;;13.70;6.05;;;28.90;99.90;;;;;;6203187;23;20155;-93
2022/09/30 06:22:38;;;;;;;19.42;6.20;;;28.90;99.90;;;;;;6191829;23;20008;-92
2022/09/30 06:25:09;;;;;;;10.93;6.05;;;28.60;99.90;;;;;;6215497;23;20099;-92
2022/09/30 06:27:37;;;;;;;13.25;6.10;;;28.60;99.90;;;;;;6215375;23;20055;-92
2022/09/30 06:30:07;;;;;;;16.30;5.65;;;28.50;99.90;;;;;;6191974;23;20099;-93
2022/09/30 06:32:34;;;;;;;11.13;5.00;;;28.40;99.90;;;;;;6190623;23;20009;-92
2022/09/30 06:35:02;;;;;;;15.07;5.50;;;27.90;99.90;;;;;;6190965;23;20001;-92
2022/09/30 06:37:33;;;;;;;16.17;5.72;;;27.80;99.90;;;;;;6190290;23;20008;-91
2022/09/30 07:27:22;;;;;;;13.15;7.55;;;28.70;99.90;;;;;;6189736;23;20044;-92
2022/09/30 07:29:49;;;;;;;15.90;7.70;;;28.60;99.90;;;;;;6189117;23;20005;-90
2022/09/30 07:32:18;;;;;;;8.63;7.90;;;28.40;99.90;;;;;;6137193;23;20020;-82
2022/09/30 07:34:45;;;;;;;10.13;8.10;;;28.40;99.90;;;;;;6136298;23;20005;-82
2022/09/30 07:37:19;;;;;;;12.23;8.00;;;28.60;99.90;;;;;;6136163;23;20009;-81
2022/09/30 07:39:48;;;;;;;11.65;8.85;;;28.30;99.90;;;;;;6160775;23;20052;-84
2022/09/30 07:42:35;;;;;;;16.17;8.73;;;28.40;99.90;;;;;;6135872;23;20490;-84
2022/09/30 07:45:17;;;;;;;11.15;9.10;;;28.80;99.90;;;;;;6162575;23;20032;-91
2022/09/30 07:47:50;;;;;;;13.98;9.65;;;28.80;99.90;;;;;;6140787;23;20071;-90
2022/09/30 07:50:16;;;;;;;10.43;9.30;;;29.00;99.90;;;;;;6138577;23;20005;-91
2022/09/30 07:52:43;;;;;;;13.10;8.93;;;29.20;99.90;;;;;;6139297;23;20063;-85
2022/09/30 07:55:09;;;;;;;10.57;9.52;;;29.20;99.90;;;;;;6139346;23;20013;-86
2022/09/30 07:57:36;;;;;;;13.27;10.88;;;29.30;99.90;;;;;;6138830;23;20005;-90
2022/09/30 08:00:03;;;;;;;12.40;10.57;;;29.20;99.90;;;;;;6139258;23;20040;-89
2022/09/30 08:02:37;;;;;;;13.18;10.98;;;29.30;99.90;;;;;;6165964;23;20009;-89
2022/09/30 08:05:05;;;;;;;11.98;10.88;;;29.40;99.90;;;;;;6139374;23;20013;-92
2022/09/30 08:07:31;;;;;;;12.15;10.70;;;29.30;99.90;;;;;;6140573;23;20017;-88
2022/09/30 08:09:58;;;;;;;13.38;10.35;;;29.20;99.90;;;;;;6136810;23;20001;-87
2022/09/30 08:12:25;;;;;;;11.30;10.30;;;28.80;99.90;;;;;;6137111;23;20009;-87
2022/09/30 08:28:16;;;;;;;12.85;10.20;;;29.40;99.90;;;;;;6215073;22;20893;-94
2022/09/30 08:30:43;;;;;;;11.70;10.60;;;29.50;99.90;;;;;;6221735;23;20016;-94
2022/09/30 08:33:10;;;;;;;12.30;11.30;;;29.80;99.90;;;;;;6221597;23;20011;-94
2022/09/30 08:35:36;;;;;;;12.07;10.85;;;29.70;99.90;;;;;;6222063;23;20040;-93
2022/09/30 08:38:03;;;;;;;13.85;11.10;;;29.60;99.90;;;;;;6221692;23;20004;-93
2022/09/30 08:40:33;;;;;;;11.30;10.18;;;29.60;99.90;;;;;;6221439;23;20035;-94
2022/09/30 08:43:06;;;;;;;13.10;10.65;;;29.50;99.90;;;;;;6191764;23;20343;-92
2022/09/30 08:45:46;;;;;;;11.77;10.57;;;29.40;99.90;;;;;;6191159;23;20091;-93
2022/09/30 08:48:21;;;;;;;11.55;10.55;;;29.50;99.90;;;;;;6191508;23;20016;-92
2022/09/30 08:51:19;;;;;;;12.32;10.90;;;28.90;99.90;;;;;;6191906;23;20039;-93
2022/09/30 08:53:51;;;;;;;11.70;10.50;;;29.00;99.90;;;;;;6191094;23;20020;-94
2022/09/30 08:56:26;;;;;;;11.40;10.40;;;29.20;99.90;;;;;;6191634;23;20004;-96
2022/09/30 08:59:14;;;;;;;12.55;10.82;;;29.20;99.90;;;;;;6192261;23;20008;-93
2022/09/30 09:01:48;;;;;;;11.60;10.70;;;29.20;99.90;;;;;;6194073;23;20016;-95
2022/09/30 09:04:14;;;;;;;10.95;10.05;;;28.70;99.90;;;;;;6191646;23;20039;-93
2022/09/30 09:07:11;;;;;;;11.40;10.30;;;28.60;99.90;;;;;;6191035;23;20013;-93
2022/09/30 09:10:02;;;;;;;11.50;10.27;;;28.50;99.90;;;;;;6191036;23;20012;-91
2022/09/30 09:12:55;;;;;;;11.38;10.48;;;28.60;99.90;;;;;;6191203;23;20015;-95
2022/09/30 09:15:28;;;;;;;11.18;10.27;;;28.50;99.90;;;;;;6191668;23;20047;-94
2022/09/30 09:18:38;;;;;;;12.68;10.35;;;28.40;99.90;;;;;;6191459;23;20011;-92
2022/09/30 09:21:29;;;;;;;12.50;11.57;;;28.60;99.90;;;;;;6192023;23;20005;-93
2022/09/30 09:24:11;;;;;;;17.85;11.63;;;29.00;99.90;;;;;;6191098;23;20040;-95
2022/09/30 09:26:38;;;;;;;12.60;11.50;;;29.00;99.90;;;;;;6190814;23;20021;-94
2022/09/30 09:29:08;;;;;;;14.05;12.40;;;29.30;99.90;;;;;;6191760;23;20012;-94
2022/09/30 09:31:35;;;;;;;14.05;12.90;;;29.40;99.90;;;;;;6191732;23;20015;-93
2022/09/30 09:34:12;;;;;;;13.68;12.80;;;29.50;99.90;;;;;;6191019;23;20005;-93
2022/09/30 09:37:15;;;;;;;13.85;12.75;;;29.50;99.90;;;;;;6190952;23;20009;-93
2022/09/30 09:39:57;;;;;;;13.95;12.20;;;29.40;99.90;;;;;;6191022;23;20008;-94
2022/09/30 09:42:24;;;;;;;13.20;12.40;;;29.20;99.90;;;;;;6191548;23;20016;-94
2022/09/30 09:44:59;;;;;;;13.45;12.65;;;29.30;99.90;;;;;;6191288;23;20009;-92
2022/09/30 09:47:35;;;;;;;14.32;13.10;;;29.30;99.90;;;;;;6190959;23;20024;-94
2022/09/30 09:50:13;;;;;;;13.13;12.30;;;29.30;99.90;;;;;;6191966;23;20437;-95
2022/09/30 09:53:13;;;;;;;13.02;12.10;;;29.30;99.90;;;;;;6190980;23;20012;-94
2022/09/30 09:55:40;;;;;;;13.25;12.40;;;29.20;99.90;;;;;;6191197;23;20435;-93
2022/09/30 09:58:12;;;;;;;14.02;12.73;;;29.30;99.90;;;;;;6191543;23;20036;-95
2022/09/30 10:03:27;;;;;;;12.95;12.05;;;29.30;99.90;;;;;;6216081;23;20326;-95
2022/09/30 10:06:11;;;;;;;13.45;12.38;;;29.10;99.90;;;;;;6192078;23;20008;-93
2022/09/30 10:08:57;;;;;;;13.70;12.90;;;29.10;99.90;;;;;;6191155;23;20021;-93
2022/09/30 10:11:28;;;;;;;13.55;12.43;;;29.10;99.90;;;;;;6190653;23;20005;-93
2022/09/30 10:14:00;;;;;;;13.48;12.43;;;28.80;99.90;;;;;;6191341;23;20435;-93
2022/09/30 10:16:36;;;;;;;13.52;12.50;;;28.30;99.90;;;;;;6190873;23;20009;-92
2022/09/30 10:19:32;;;;;;;14.00;12.60;;;28.40;99.90;;;;;;6190914;23;20012;-92
2022/09/30 10:22:08;;;;;;;13.63;12.27;;;28.90;99.90;;;;;;6077855;23;20089;-95
2022/09/30 10:24:38;;;;;;;12.93;12.07;;;29.10;99.90;;;;;;6125799;23;20377;-93
2022/09/30 10:27:27;;;;;;;12.88;11.80;;;28.60;99.90;;;;;;6101436;23;20040;-92
2022/09/30 10:29:53;;;;;;;16.70;12.85;;;28.30;99.90;;;;;;6077840;23;20089;-94
2022/09/30 10:32:22;;;;;;;12.90;11.82;;;27.90;99.90;;;;;;6101481;23;20010;-94
2022/09/30 10:35:17;;;;;;;12.93;11.93;;;27.80;99.90;;;;;;6102365;23;20025;-95
2022/09/30 10:37:56;;;;;;;12.10;11.48;;;27.90;99.90;;;;;;6077528;23;20475;-95
2022/09/30 10:40:28;;;;;;;12.48;11.40;;;28.20;99.90;;;;;;6101698;23;20064;-95
2022/09/30 10:42:58;;;;;;;13.63;12.38;;;28.50;99.90;;;;;;6101632;23;20085;-94
2022/09/30 10:45:44;;;;;;;12.52;11.50;;;28.50;99.90;;;;;;6102209;23;20010;-94
2022/09/30 10:48:18;;;;;;;13.48;12.27;;;28.50;99.90;;;;;;6101663;23;20081;-94
2022/09/30 10:51:05;;;;;;;13.00;12.05;;;28.30;99.90;;;;;;6102881;23;20397;-93
2022/09/30 10:53:34;;;;;;;13.10;12.20;;;28.70;99.90;;;;;;6103643;23;20100;-93
2022/09/30 10:56:06;;;;;;;13.18;12.07;;;28.30;99.90;;;;;;6103482;23;20082;-93
2022/09/30 10:58:48;;;;;;;12.93;12.00;;;28.50;99.90;;;;;;6152750;23;20008;-94
2022/09/30 11:01:44;;;;;;;13.05;11.95;;;28.80;99.90;;;;;;6192591;23;20046;-95
2022/09/30 11:04:43;;;;;;;13.57;12.50;;;28.90;99.90;;;;;;6192187;23;20032;-94
2022/09/30 11:07:47;;;;;;;16.13;12.55;;;29.00;99.90;;;;;;6192746;23;20078;-94
2022/09/30 11:10:23;;;;;;;13.82;12.82;;;29.30;99.90;;;;;;6192320;23;20013;-93
2022/09/30 11:13:00;;;;;;;13.80;12.70;;;29.60;99.90;;;;;;6192740;23;20008;-93
2022/09/30 11:15:56;;;;;;;14.15;13.15;;;29.60;99.90;;;;;;6193644;23;20017;-95
2022/09/30 11:19:07;;;;;;;13.07;11.90;;;29.60;99.90;;;;;;6194109;23;20371;-93
2022/09/30 11:22:14;;;;;;;13.25;11.88;;;29.40;99.90;;;;;;6154932;23;20009;-93
2022/09/30 11:24:45;;;;;;;13.38;11.90;;;29.30;99.90;;;;;;6192035;23;20035;-93
2022/09/30 11:27:32;;;;;;;12.15;11.10;;;29.00;99.90;;;;;;6192870;23;20008;-93
2022/09/30 11:30:36;;;;;;;11.63;10.82;;;28.70;99.90;;;;;;6191558;23;20111;-93
2022/09/30 11:33:39;;;;;;;11.57;10.87;;;28.10;99.90;;;;;;6192126;23;20009;-94
2022/09/30 11:36:33;;;;;;;12.65;11.50;;;28.30;99.90;;;;;;6192684;23;20039;-93
2022/09/30 11:39:37;;;;;;;12.20;11.30;;;28.50;99.90;;;;;;6192296;23;20012;-93
2022/09/30 11:42:21;;;;;;;13.25;11.43;;;28.50;99.90;;;;;;6191949;23;20390;-93
2022/09/30 11:44:52;;;;;;;;;;;28.10;99.90;;;;;;6194217;23;20005;-95
2022/09/30 11:47:41;;;;;;;11.73;10.85;;;28.00;99.90;;;;;;6191983;23;19912;-96
2022/09/30 11:50:46;;;;;;;11.40;10.60;;;28.10;99.90;;;;;;6193338;23;20008;-95
2022/09/30 11:53:49;;;;;;;13.07;11.82;;;28.20;99.90;;;;;;6158951;23;20015;-93
2022/09/30 11:56:34;;;;;;;12.00;11.20;;;28.00;99.90;;;;;;6089883;23;20049;-93
2022/09/30 11:59:03;;;;;;;;;;;28.10;99.90;;;;;;6191580;23;20012;-93
2022/09/30 12:01:40;;;;;;;13.23;12.07;;;27.90;99.90;;;;;;6192055;23;19906;-94
2022/09/30 12:04:30;;;;;;;13.27;12.18;;;27.70;99.90;;;;;;6192048;23;20095;-93
2022/09/30 12:07:05;;;;;;;14.18;12.40;;;27.50;99.90;;;;;;6192244;23;20048;-93
2022/09/30 12:09:47;;;;;;;12.90;12.07;;;27.60;99.90;;;;;;6194033;23;20013;-94
2022/09/30 12:12:20;;;;;;;12.93;12.02;;;27.70;99.90;;;;;;6191978;23;20004;-93
2022/09/30 12:14:58;;;;;;;13.23;12.20;;;27.80;99.90;;;;;;6191849;23;20013;-94
2022/09/30 12:17:31;;;;;;;12.52;11.85;;;27.90;99.90;;;;;;6193600;23;20005;-93
2022/09/30 12:20:09;;;;;;;12.73;11.93;;;28.00;99.90;;;;;;6212049;23;20009;-95
2022/09/30 12:22:43;;;;;;;13.30;12.45;;;28.30;99.90;;;;;;6197963;23;20411;-93
2022/09/30 12:25:21;;;;;;;13.25;12.32;;;28.60;99.90;;;;;;6202111;23;20021;-94
2022/09/30 12:31:51;;;;;;;12.80;11.68;;;28.20;99.90;;;;;;6106983;23;20013;-95
2022/09/30 12:38:46;;;;;;;13.23;12.10;;;27.90;99.90;;;;;;6228548;23;20036;-93
2022/09/30 12:41:25;;;;;;;12.18;11.10;;;27.60;99.90;;;;;;6145540;23;20008;-94
2022/09/30 12:44:23;;;;;;;12.38;11.40;;;27.60;99.90;;;;;;6141319;23;20017;-95
2022/09/30 12:47:44;;;;;;;10.57;9.77;;;27.60;99.90;;;;;;6016282;23;20042;-95
2022/09/30 12:50:16;;;;;;;10.80;10.10;;;27.60;99.90;;;;;;6013311;23;20015;-93
2022/09/30 12:52:51;;;;;;;11.98;10.57;;;27.60;99.90;;;;;;6014249;23;20011;-95
2022/09/30 12:55:47;;;;;;;11.48;10.68;;;27.80;99.90;;;;;;6015169;23;20068;-94
2022/09/30 12:58:19;;;;;;;10.63;9.60;;;27.50;99.90;;;;;;5990566;23;20461;-96
2022/09/30 13:01:15;;;;;;;9.70;9.10;;;27.30;99.90;;;;;;6015518;23;20012;-94
2022/09/30 13:04:08;;;;;;;10.15;9.55;;;27.30;99.90;;;;;;6013089;23;20033;-94
2022/09/30 13:06:47;;;;;;;10.80;9.73;;;27.20;99.90;;;;;;5988118;23;20024;-93
2022/09/30 13:09:50;;;;;;;10.80;10.10;;;27.30;99.90;;;;;;6011859;23;20016;-93
2022/09/30 13:12:25;;;;;;;11.60;10.45;;;27.50;99.90;;;;;;6011945;23;20014;-94
2022/09/30 13:15:27;;;;;;;11.13;10.30;;;27.50;99.90;;;;;;6011526;23;20008;-93
2022/09/30 13:18:01;;;;;;;11.25;10.20;;;27.40;99.90;;;;;;6013622;23;20427;-95
2022/09/30 13:21:15;;;;;;;11.07;10.20;;;27.10;99.90;;;;;;5993442;23;20011;-94
2022/09/30 13:23:50;;;;;;;10.35;9.57;;;27.10;99.90;;;;;;5994902;23;20011;-94
2022/09/30 13:27:08;;;;;;;10.88;9.68;;;27.30;99.90;;;;;;6094094;23;20489;-95
2022/09/30 13:29:46;;;;;;;10.77;9.82;;;27.50;99.90;;;;;;6161233;23;20028;-95
2022/09/30 13:32:41;;;;;;;10.57;9.93;;;27.50;99.90;;;;;;6161094;23;20009;-94
2022/09/30 13:35:50;;;;;;;10.88;10.20;;;27.20;99.90;;;;;;6160978;23;20438;-94
2022/09/30 13:38:20;;;;;;;10.68;9.70;;;27.10;99.90;;;;;;6136324;23;20017;-95
2022/09/30 13:41:08;;;;;;;10.20;9.30;;;27.00;99.90;;;;;;6161417;23;20441;-93
2022/09/30 13:44:06;;;;;;;10.13;9.40;;;27.10;99.90;;;;;;6137102;23;20040;-94
2022/09/30 13:46:58;;;;;;;10.02;9.20;;;27.30;99.90;;;;;;6144930;23;20019;-93
2022/09/30 13:49:53;;;;;;;9.63;8.98;;;27.00;99.90;;;;;;6188812;23;19997;-94
2022/09/30 13:52:40;;;;;;;;;;;27.30;99.90;;;;;;6163308;23;20017;-92
2022/09/30 13:55:17;;;;;;;9.98;9.13;;;27.20;99.90;;;;;;6174686;23;19904;-94
2022/09/30 13:58:15;;;;;;;12.85;9.73;;;27.00;99.90;;;;;;6180393;23;20005;-96
2022/09/30 14:00:58;;;;;;;16.05;9.98;;;27.00;99.90;;;;;;6143061;23;20008;-94
2022/09/30 14:03:59;;;;;;;12.20;9.75;;;26.90;99.90;;;;;;6159678;22;20009;-94
2022/09/30 14:16:54;;;;;;;8.98;8.40;;;26.90;99.90;;;;;;6273074;22;20026;-94
2022/09/30 14:27:15;;;;;;;;;;;;;;;;;;;;;
2022/09/30 14:40:34;;;;;;;5.45;4.90;;;26.40;99.90;;;;;;6231710;22;20024;-96
2022/09/30 14:50:29;;;;;;;;;;;;;;;;;;;;;
2022/09/30 14:57:31;;;;;;;;;;;;;;;;;;;;;
2022/09/30 15:01:19;;;;;;;;;;;;;;;;;;;;;
2022/09/30 15:03:56;;;;;;;7.82;3.28;;;25.50;99.90;;;;;;6197851;23;20013;-95
2022/09/30 15:06:42;;;;;;;7.53;3.65;;;25.20;99.90;;;;;;6171472;23;20005;-95
2022/09/30 15:09:17;;;;;;;6.03;3.83;;;25.20;99.90;;;;;;6161405;23;20016;-94
2022/09/30 15:11:44;;;;;;;8.88;3.78;;;25.10;99.90;;;;;;6161587;23;20005;-93
2022/09/30 15:14:24;;;;;;;7.55;3.88;;;25.10;99.90;;;;;;6161285;23;20096;-94
2022/09/30 15:16:53;;;;;;;12.15;3.20;;;25.10;99.90;;;;;;6160558;23;20013;-96
2022/09/30 15:19:25;;;;;;;6.20;3.17;;;25.10;99.90;;;;;;6160732;23;20008;-94
2022/09/30 15:22:01;;;;;;;10.05;3.80;;;24.90;99.90;;;;;;6160415;23;20009;-94
2022/09/30 15:24:31;;;;;;;11.15;3.10;;;24.90;99.90;;;;;;6160477;23;20016;-94
2022/09/30 15:27:03;;;;;;;7.15;3.60;;;24.90;99.90;;;;;;6160309;23;20021;-93
2022/09/30 15:29:30;;;;;;;8.73;3.10;;;25.00;99.90;;;;;;6160891;23;20092;-93
2022/09/30 15:32:25;;;;;;;6.78;3.10;;;24.90;99.90;;;;;;6161097;23;20001;-94
2022/09/30 15:34:57;;;;;;;7.05;3.20;;;24.80;99.90;;;;;;6068665;23;20010;-94
2022/09/30 15:37:32;;;;;;;5.35;3.60;;;24.70;99.90;;;;;;6045188;23;20038;-93
2022/09/30 15:43:01;;;;;;;6.15;3.33;;;24.70;99.90;;;;;;6069113;23;20060;-94
2022/09/30 15:45:39;;;;;;;6.40;3.70;;;24.70;99.90;;;;;;6045811;23;20027;-93
2022/09/30 15:48:15;;;;;;;6.63;4.00;;;24.70;99.90;;;;;;6046942;23;20111;-94
2022/09/30 15:50:46;;;;;;;8.00;4.07;;;24.60;99.90;;;;;;6069877;23;20007;-94
2022/09/30 15:53:19;;;;;;;7.82;3.88;;;24.60;99.90;;;;;;6045274;23;20011;-94
2022/09/30 15:55:48;;;;;;;4.50;3.20;;;24.50;99.90;;;;;;6068589;23;20007;-94
2022/09/30 15:58:37;;;;;;;4.18;3.28;;;24.40;99.90;;;;;;6045009;23;20011;-94
2022/09/30 16:01:42;;;;;;;9.20;3.50;;;24.40;99.90;;;;;;6069710;23;20015;-94
2022/09/30 16:04:13;;;;;;;6.88;3.00;;;24.30;99.90;;;;;;6069529;23;20437;-94
2022/09/30 16:06:48;;;;;;;6.15;3.03;;;24.20;99.90;;;;;;6069713;23;20065;-94
2022/09/30 16:09:17;;;;;;;7.78;3.13;;;24.20;99.90;;;;;;6070319;23;20018;-93
2022/09/30 16:12:02;;;;;;;7.57;2.97;;;24.10;99.90;;;;;;6146750;23;20029;-95
2022/09/30 16:14:49;;;;;;;8.13;3.17;;;23.90;99.90;;;;;;6176119;23;20362;-93
2022/09/30 16:17:22;;;;;;;4.60;2.70;;;23.80;99.90;;;;;;6157523;23;20062;-93
2022/09/30 16:20:05;;;;;;;9.83;4.20;;;23.70;99.90;;;;;;6133145;23;20029;-93
2022/09/30 16:22:40;;;;;;;6.38;3.72;;;23.60;99.90;;;;;;6133660;23;20019;-94
2022/09/30 16:25:27;;;;;;;8.00;4.65;;;23.60;99.90;;;;;;6157349;23;20014;-93
2022/09/30 16:27:59;;;;;;;12.10;5.90;;;23.50;99.90;;;;;;6157790;23;20052;-93
2022/09/30 16:30:28;;;;;;;10.35;7.28;;;23.50;99.90;;;;;;6133860;23;20009;-94
2022/09/30 16:33:02;;;;;;;10.55;5.53;;;23.50;99.90;;;;;;6132692;23;20014;-93
2022/09/30 16:35:29;;;;;;;11.75;3.78;;;23.40;99.90;;;;;;6132237;23;20013;-94
2022/09/30 16:38:04;;;;;;;7.47;3.20;;;23.30;99.90;;;;;;6156864;23;20012;-94
2022/09/30 16:40:34;;;;;;;10.15;2.80;;;23.30;99.90;;;;;;6132003;23;20009;-94
2022/09/30 16:43:03;;;;;;;9.25;2.78;;;23.20;99.90;;;;;;6132738;23;20013;-94
2022/09/30 16:45:30;;;;;;;12.63;3.80;;;23.20;99.90;;;;;;6131979;23;20013;-93
2022/09/30 16:48:00;;;;;;;8.63;2.72;;;23.20;99.90;;;;;;6132199;23;20048;-93
2022/09/30 16:50:37;;;;;;;6.55;2.40;;;23.10;99.90;;;;;;6132111;23;20014;-94
2022/09/30 16:53:04;;;;;;;8.77;3.63;;;23.00;99.90;;;;;;6132205;23;20443;-93
2022/09/30 16:55:34;;;;;;;6.72;2.55;;;23.00;99.90;;;;;;6132355;23;20002;-93
2022/09/30 16:58:03;;;;;;;15.38;3.00;;;22.90;99.90;;;;;;6132157;23;20017;-93
2022/09/30 17:00:31;;;;;;;8.60;2.38;;;22.90;99.90;;;;;;6132555;23;20321;-93
2022/09/30 17:02:58;;;;;;;12.80;2.60;;;22.90;99.90;;;;;;6132368;23;20084;-93
2022/09/30 17:05:26;;;;;;;9.35;2.00;;;22.90;99.90;;;;;;6132600;23;20063;-94
2022/09/30 17:07:57;;;;;;;7.20;2.33;;;22.90;99.90;;;;;;6132340;23;20463;-94
2022/09/30 17:10:27;;;;;;;8.27;2.65;;;22.90;99.90;;;;;;6132966;23;20010;-94
2022/09/30 17:12:59;;;;;;;8.43;2.45;;;22.90;99.90;;;;;;6133834;23;20013;-94
2022/09/30 17:15:28;;;;;;;7.18;2.10;;;22.90;99.90;;;;;;6114411;23;20013;-93
2022/09/30 17:17:56;;;;;;;12.15;2.80;;;22.90;99.90;;;;;;6142271;23;20016;-94
2022/09/30 17:20:24;;;;;;;10.02;2.28;;;22.90;99.90;;;;;;6164254;23;20033;-94
2022/09/30 17:22:51;;;;;;;11.20;2.40;;;22.90;99.90;;;;;;6141531;23;20394;-94
2022/09/30 17:25:19;;;;;;;11.45;2.58;;;22.90;99.90;;;;;;6140725;23;20006;-94
2022/09/30 17:27:50;;;;;;;8.88;2.80;;;22.90;99.90;;;;;;6136761;23;20021;-93
2022/09/30 17:30:18;;;;;;;10.25;2.80;;;22.80;99.90;;;;;;6137160;23;20005;-94
2022/09/30 17:32:46;;;;;;;8.07;2.55;;;22.90;99.90;;;;;;6139414;23;20058;-93
2022/09/30 17:35:13;;;;;;;15.05;3.30;;;22.90;99.90;;;;;;6138893;23;20060;-94
2022/09/30 17:37:42;;;;;;;8.20;2.42;;;22.90;99.90;;;;;;6139687;23;20383;-93
2022/09/30 17:43:09;;;;;;;10.75;2.50;;;22.80;99.90;;;;;;6163221;23;20013;-94
2022/09/30 17:45:44;;;;;;;9.82;2.22;;;22.80;99.90;;;;;;6138668;23;20013;-94
2022/09/30 17:48:16;;;;;;;11.00;2.30;;;22.80;99.90;;;;;;6140437;23;20013;-94
2022/09/30 17:50:47;;;;;;;5.85;1.95;;;22.80;99.90;;;;;;6140219;23;20005;-95
2022/09/30 17:53:17;;;;;;;9.68;2.72;;;22.80;99.90;;;;;;6139755;23;20016;-94
2022/09/30 17:55:48;;;;;;;6.93;2.00;;;22.80;99.90;;;;;;6141701;23;20005;-94
2022/09/30 17:58:18;;;;;;;12.32;2.40;;;22.80;99.90;;;;;;6138747;23;20061;-94
2022/09/30 18:00:45;;;;;;;10.13;1.98;;;22.80;99.90;;;;;;6138229;23;20088;-93
2022/09/30 18:03:13;;;;;;;11.15;2.30;;;22.80;99.90;;;;;;6137649;23;20097;-93
2022/09/30 18:05:44;;;;;;;7.88;2.22;;;22.80;99.90;;;;;;6137865;23;20432;-93
2022/09/30 18:08:12;;;;;;;8.40;2.00;;;22.70;99.90;;;;;;6139358;23;20013;-94
2022/09/30 18:10:39;;;;;;;10.57;2.65;;;22.80;99.90;;;;;;6165952;23;20001;-94
2022/09/30 18:13:06;;;;;;;4.55;2.50;;;22.70;99.90;;;;;;6141684;23;20017;-94
2022/09/30 18:15:37;;;;;;;6.55;2.13;;;22.70;99.90;;;;;;6143559;23;20009;-93
2022/09/30 18:18:17;;;;;;;10.15;2.00;;;22.70;99.90;;;;;;6169026;23;20427;-95
2022/09/30 18:20:49;;;;;;;6.00;2.15;;;22.70;99.90;;;;;;6146420;23;20012;-95
2022/09/30 18:23:20;;;;;;;8.40;3.28;;;22.70;99.90;;;;;;6168689;23;20009;-93
2022/09/30 18:25:48;;;;;;;12.95;2.70;;;22.80;99.90;;;;;;6168039;23;20005;-92
2022/09/30 18:28:16;;;;;;;6.88;2.08;;;22.70;99.90;;;;;;6144695;23;20020;-93
2022/09/30 18:30:43;;;;;;;6.32;2.00;;;22.70;99.90;;;;;;6148526;23;20011;-93
2022/09/30 18:33:27;;;;;;;8.63;2.03;;;22.70;99.90;;;;;;6165734;23;20001;-94
2022/09/30 18:35:55;;;;;;;10.70;1.97;;;22.60;99.90;;;;;;6146516;23;20061;-93
2022/09/30 18:38:27;;;;;;;5.20;1.75;;;22.70;99.90;;;;;;6170411;23;20168;-94
2022/09/30 18:40:54;;;;;;;10.98;2.00;;;22.60;99.90;;;;;;6163237;23;20013;-92
2022/09/30 18:43:21;;;;;;;8.75;1.85;;;22.60;99.90;;;;;;6162121;23;20006;-92
2022/09/30 18:45:57;;;;;;;6.47;1.83;;;22.60;99.90;;;;;;6134075;23;20444;-92
2022/09/30 18:48:25;;;;;;;9.70;2.08;;;22.60;99.90;;;;;;6136669;23;20021;-93
2022/09/30 18:50:52;;;;;;;9.15;2.10;;;22.60;99.90;;;;;;6138141;23;20002;-93
2022/09/30 18:53:21;;;;;;;6.93;1.92;;;22.60;99.90;;;;;;6161871;23;20013;-94
2022/09/30 18:55:48;;;;;;;9.30;1.90;;;22.60;99.90;;;;;;6138620;23;20447;-94
2022/09/30 18:58:16;;;;;;;9.88;2.08;;;22.60;99.90;;;;;;6134467;23;20107;-93
2022/09/30 19:00:44;;;;;;;6.20;2.03;;;22.60;99.90;;;;;;6165684;23;20073;-93
2022/09/30 19:03:18;;;;;;;6.53;2.40;;;22.60;99.90;;;;;;6159095;23;20013;-93
2022/09/30 19:05:45;;;;;;;5.95;1.95;;;22.60;99.90;;;;;;6141108;23;20013;-93
2022/09/30 19:08:11;;;;;;;11.82;2.30;;;22.60;99.90;;;;;;6141462;23;20462;-93
2022/09/30 19:10:41;;;;;;;8.20;2.03;;;22.60;99.90;;;;;;6141128;23;20017;-94
2022/09/30 19:13:09;;;;;;;7.63;1.75;;;22.60;99.90;;;;;;6145496;23;20032;-93
2022/09/30 19:15:38;;;;;;;8.43;1.77;;;22.60;99.90;;;;;;6169451;23;20009;-93
2022/09/30 19:18:08;;;;;;;6.88;2.10;;;22.60;99.90;;;;;;6170163;23;20009;-93
2022/09/30 19:20:44;;;;;;;7.53;2.45;;;22.60;99.90;;;;;;6166610;23;20004;-94
2022/09/30 19:23:10;;;;;;;6.53;2.03;;;22.60;99.90;;;;;;6169359;23;20036;-94
2022/09/30 19:25:40;;;;;;;8.77;2.17;;;22.60;99.90;;;;;;6141240;23;20082;-93
2022/09/30 19:28:07;;;;;;;9.35;2.38;;;22.60;99.90;;;;;;6168507;23;20021;-94
2022/09/30 19:30:35;;;;;;;16.98;2.15;;;22.60;99.90;;;;;;6142017;23;20371;-94
2022/09/30 19:33:03;;;;;;;5.03;2.10;;;22.60;99.90;;;;;;6166169;23;20032;-94
2022/09/30 19:35:32;;;;;;;10.18;2.60;;;22.60;99.90;;;;;;6168990;23;20009;-95
2022/09/30 19:38:13;;;;;;;9.23;2.20;;;22.60;99.90;;;;;;6172161;23;20060;-94
2022/09/30 19:40:54;;;;;;;7.82;2.25;;;22.60;99.90;;;;;;6170045;23;20009;-94
2022/09/30 19:43:21;;;;;;;9.55;2.33;;;22.60;99.90;;;;;;6168698;23;20009;-93
2022/09/30 19:46:00;;;;;;;6.60;2.28;;;22.60;99.90;;;;;;6145298;23;20005;-93
2022/09/30 19:48:29;;;;;;;6.38;1.90;;;22.60;99.90;;;;;;6142964;23;20047;-93
2022/09/30 19:51:01;;;;;;;7.10;2.60;;;22.60;99.90;;;;;;6144115;23;20019;-93
2022/09/30 19:53:30;;;;;;;9.43;2.03;;;22.60;99.90;;;;;;6169930;23;20012;-94
2022/09/30 19:56:19;;;;;;;6.80;1.90;;;22.50;99.90;;;;;;6145966;23;20005;-94
2022/09/30 19:58:57;;;;;;;7.65;2.38;;;22.60;99.90;;;;;;6185235;23;20017;-94
2022/09/30 20:01:32;;;;;;;7.72;2.10;;;22.50;99.90;;;;;;6171132;23;20016;-93
2022/09/30 20:04:03;;;;;;;4.80;2.38;;;22.60;99.90;;;;;;6185448;23;20040;-93
2022/09/30 20:06:31;;;;;;;7.40;2.45;;;22.50;99.90;;;;;;6177554;23;20013;-95
2022/09/30 20:09:00;;;;;;;9.10;2.53;;;22.50;99.90;;;;;;6151890;23;20013;-94
2022/09/30 20:11:32;;;;;;;10.00;2.45;;;22.50;99.90;;;;;;6189577;23;20009;-95
2022/09/30 20:16:49;;;;;;;5.15;2.22;;;22.40;99.90;;;;;;6184347;23;20013;-93
2022/09/30 20:19:18;;;;;;;9.73;2.80;;;22.40;99.90;;;;;;6159756;23;20006;-94
2022/09/30 20:21:46;;;;;;;6.18;2.38;;;22.40;99.90;;;;;;6159174;23;19994;-94
2022/09/30 20:24:18;;;;;;;7.35;2.22;;;22.50;99.90;;;;;;6159671;23;20065;-93
2022/09/30 20:26:46;;;;;;;9.90;2.95;;;22.40;99.90;;;;;;6183944;23;20010;-95
2022/09/30 20:29:22;;;;;;;8.60;2.28;;;22.50;99.90;;;;;;6159691;23;20009;-94
2022/09/30 20:31:58;;;;;;;10.05;2.25;;;22.40;99.90;;;;;;6137705;23;20005;-94
2022/09/30 20:34:36;;;;;;;12.02;2.30;;;22.40;99.90;;;;;;6161622;23;20093;-94
2022/09/30 20:37:06;;;;;;;8.88;2.50;;;22.40;99.90;;;;;;6139952;23;20002;-94
2022/09/30 20:39:41;;;;;;;6.70;2.10;;;22.40;99.90;;;;;;6138784;23;20032;-94
2022/09/30 20:42:10;;;;;;;9.65;2.55;;;22.40;99.90;;;;;;6151361;23;20340;-94
2022/09/30 20:44:37;;;;;;;11.88;2.88;;;22.40;99.90;;;;;;6139861;23;20036;-94
2022/09/30 20:47:04;;;;;;;9.80;2.70;;;22.40;99.90;;;;;;6141896;23;20444;-94
2022/09/30 20:49:31;;;;;;;9.40;2.75;;;22.40;99.90;;;;;;6164072;23;20004;-93
2022/09/30 20:52:04;;;;;;;5.28;2.15;;;22.40;99.90;;;;;;6138404;23;20025;-94
2022/09/30 20:54:34;;;;;;;11.75;2.70;;;22.40;99.90;;;;;;6139747;23;20010;-93
2022/09/30 20:57:02;;;;;;;8.90;2.40;;;22.30;99.90;;;;;;6141662;23;20006;-94
2022/09/30 20:59:30;;;;;;;6.05;2.15;;;22.40;99.90;;;;;;6139927;23;20013;-94
2022/09/30 21:01:57;;;;;;;6.47;2.58;;;22.30;99.90;;;;;;6137994;23;20009;-94
2022/09/30 21:04:24;;;;;;;10.02;2.15;;;22.40;99.90;;;;;;6140014;23;20006;-94
2022/09/30 21:06:53;;;;;;;10.20;2.30;;;22.40;99.90;;;;;;6140822;23;20009;-93
2022/09/30 21:09:20;;;;;;;12.45;3.47;;;22.40;99.90;;;;;;6140857;23;20006;-93
2022/09/30 21:11:48;;;;;;;12.77;2.53;;;22.40;99.90;;;;;;6139586;23;20029;-93
2022/09/30 21:14:20;;;;;;;10.45;2.33;;;22.40;99.90;;;;;;6145949;23;20473;-93
2022/09/30 21:16:50;;;;;;;15.45;3.00;;;22.40;99.90;;;;;;6155513;23;20005;-94